createdAt,value
2022-10-08T00:01:42.529Z,60.50
2022-10-08T00:03:46.436Z,60.50
2022-10-08T00:05:58.275Z,60.50
2022-10-08T00:07:59.870Z,60.50
2022-10-08T00:10:01.504Z,60.40
2022-10-08T00:12:03.251Z,60.40
2022-10-08T00:14:06.071Z,60.40
2022-10-08T00:16:15.152Z,60.50
2022-10-08T00:18:17.224Z,60.40
2022-10-08T00:20:19.188Z,60.40
2022-10-08T00:22:20.803Z,60.40
2022-10-08T00:24:23.717Z,60.30
2022-10-08T00:26:27.850Z,60.30
2022-10-08T00:28:29.617Z,60.30
2022-10-08T00:30:31.305Z,60.20
2022-10-08T00:32:32.913Z,60.20
2022-10-08T00:34:34.514Z,60.30
2022-10-08T00:36:37.935Z,60.20
2022-10-08T00:38:39.978Z,60.20
2022-10-08T00:40:43.543Z,60.20
2022-10-08T00:42:45.460Z,60.30
2022-10-08T00:44:47.588Z,60.30
2022-10-08T00:46:51.058Z,60.30
2022-10-08T00:49:10.297Z,60.00
2022-10-08T00:51:12.091Z,60.20
2022-10-08T00:53:13.916Z,60.20
2022-10-08T00:55:18.216Z,60.20
2022-10-08T00:57:21.726Z,60.40
2022-10-08T00:59:23.790Z,61.10
2022-10-08T01:01:25.597Z,60.50
2022-10-08T01:03:27.386Z,60.50
2022-10-08T01:05:58.484Z,60.30
2022-10-08T01:08:23.005Z,60.40
2022-10-08T01:10:34.389Z,60.40
2022-10-08T01:12:50.992Z,60.40
2022-10-08T01:15:01.823Z,60.30
2022-10-08T01:17:26.659Z,60.40
2022-10-08T01:19:53.307Z,60.30
2022-10-08T01:22:16.648Z,60.30
2022-10-08T01:24:52.564Z,60.30
2022-10-08T01:26:59.720Z,60.30
2022-10-08T01:29:29.715Z,60.90
2022-10-08T01:31:35.813Z,60.30
2022-10-08T01:33:52.721Z,60.30
2022-10-08T01:35:57.640Z,60.30
2022-10-08T01:38:03.235Z,60.20
2022-10-08T01:40:11.623Z,60.30
2022-10-08T01:42:13.870Z,60.20
2022-10-08T01:44:35.989Z,60.20
2022-10-08T01:46:41.031Z,60.30
2022-10-08T01:48:44.364Z,60.30
2022-10-08T01:50:55.669Z,60.30
2022-10-08T01:53:07.165Z,60.30
2022-10-08T01:55:16.884Z,60.40
2022-10-08T01:57:18.600Z,60.30
2022-10-08T01:59:24.209Z,60.30
2022-10-08T02:01:50.360Z,60.30
2022-10-08T02:04:10.868Z,60.40
2022-10-08T02:06:12.560Z,60.40
2022-10-08T02:08:14.337Z,60.50
2022-10-08T02:10:19.578Z,60.40
2022-10-08T02:12:24.790Z,60.40
2022-10-08T02:14:29.240Z,60.40
2022-10-08T02:16:33.038Z,60.40
2022-10-08T02:18:42.516Z,60.40
2022-10-08T02:21:14.503Z,60.50
2022-10-08T02:23:29.043Z,60.40
2022-10-08T02:25:43.924Z,60.30
2022-10-08T02:28:03.288Z,60.40
2022-10-08T02:30:09.927Z,60.40
2022-10-08T02:32:31.098Z,60.40
2022-10-08T02:34:35.107Z,60.40
2022-10-08T02:36:42.544Z,60.50
2022-10-08T02:38:52.243Z,60.50
2022-10-08T02:40:58.988Z,60.50
2022-10-08T02:43:07.419Z,60.40
2022-10-08T02:45:22.137Z,60.30
2022-10-08T02:47:26.988Z,60.40
2022-10-08T02:49:33.671Z,60.40
2022-10-08T02:51:40.020Z,60.40
2022-10-08T02:53:41.939Z,60.40
2022-10-08T02:56:01.192Z,60.30
2022-10-08T02:58:08.271Z,60.20
2022-10-08T03:00:11.096Z,60.30
2022-10-08T03:02:27.540Z,60.30
2022-10-08T03:04:46.656Z,60.30
2022-10-08T03:06:49.594Z,60.30
2022-10-08T03:08:52.515Z,60.30
2022-10-08T03:10:54.740Z,60.30
2022-10-08T03:13:03.513Z,60.20
2022-10-08T03:15:06.257Z,60.30
2022-10-08T03:17:09.988Z,60.40
2022-10-08T03:19:14.609Z,60.30
2022-10-08T03:21:16.461Z,60.30
2022-10-08T03:23:18.920Z,60.30
2022-10-08T03:25:20.588Z,60.30
2022-10-08T03:27:22.172Z,60.30
2022-10-08T03:29:23.814Z,60.20
2022-10-08T03:31:25.402Z,60.10
2022-10-08T03:33:27.054Z,60.20
2022-10-08T03:35:28.668Z,60.20
2022-10-08T03:37:30.438Z,60.20
2022-10-08T03:39:32.018Z,60.20
2022-10-08T03:41:33.850Z,60.20
2022-10-08T03:43:35.924Z,60.20
2022-10-08T03:45:37.536Z,60.20
2022-10-08T03:47:39.239Z,60.10
2022-10-08T03:49:41.171Z,60.20
2022-10-08T03:51:42.760Z,60.20
2022-10-08T03:53:44.577Z,60.10
2022-10-08T03:55:46.193Z,60.10
2022-10-08T03:57:47.786Z,60.10
2022-10-08T03:59:49.388Z,60.10
2022-10-08T04:01:51.124Z,60.00
2022-10-08T04:03:53.152Z,60.00
2022-10-08T04:05:55.167Z,60.10
2022-10-08T04:07:56.766Z,60.10
2022-10-08T04:09:58.387Z,60.00
2022-10-08T04:11:59.975Z,60.00
2022-10-08T04:14:01.709Z,60.00
2022-10-08T04:16:06.036Z,60.70
2022-10-08T04:18:07.719Z,60.00
2022-10-08T04:20:09.871Z,59.90
2022-10-08T04:22:11.469Z,59.80
2022-10-08T04:24:13.156Z,59.90
2022-10-08T04:26:14.904Z,59.80
2022-10-08T04:28:16.583Z,59.70
2022-10-08T04:30:18.227Z,59.50
2022-10-08T04:32:19.801Z,59.50
2022-10-08T04:34:21.451Z,59.40
2022-10-08T04:36:25.219Z,59.60
2022-10-08T04:38:27.857Z,60.00
2022-10-08T04:40:29.519Z,59.40
2022-10-08T04:42:31.099Z,59.60
2022-10-08T04:44:32.692Z,59.40
2022-10-08T04:46:34.324Z,59.50
2022-10-08T04:48:36.208Z,59.50
2022-10-08T04:50:38.408Z,59.50
2022-10-08T04:52:40.008Z,59.40
2022-10-08T04:54:41.587Z,59.70
2022-10-08T04:56:43.239Z,59.50
2022-10-08T04:58:45.167Z,59.30
2022-10-08T05:00:46.850Z,59.30
2022-10-08T05:02:48.808Z,59.40
2022-10-08T05:04:50.655Z,59.30
2022-10-08T05:06:52.288Z,59.50
2022-10-08T05:08:54.788Z,59.50
2022-10-08T05:10:56.398Z,59.80
2022-10-08T05:12:57.993Z,59.50
2022-10-08T05:14:59.638Z,59.30
2022-10-08T05:17:01.255Z,59.00
2022-10-08T05:19:04.400Z,59.10
2022-10-08T05:21:08.265Z,59.20
2022-10-08T05:23:10.063Z,58.80
2022-10-08T05:25:11.646Z,58.80
2022-10-08T05:27:13.247Z,59.00
2022-10-08T05:29:14.843Z,58.80
2022-10-08T05:31:16.926Z,58.90
2022-10-08T05:33:18.698Z,58.90
2022-10-08T05:35:20.502Z,58.80
2022-10-08T05:37:22.139Z,58.80
2022-10-08T05:39:23.761Z,58.80
2022-10-08T05:41:28.227Z,59.00
2022-10-08T05:43:29.844Z,58.70
2022-10-08T05:45:31.449Z,58.60
2022-10-08T05:47:33.051Z,58.80
2022-10-08T05:49:34.640Z,58.70
2022-10-08T05:51:38.343Z,58.60
2022-10-08T05:53:42.044Z,58.50
2022-10-08T05:55:43.665Z,58.90
2022-10-08T05:57:45.264Z,58.70
2022-10-08T05:59:46.830Z,58.30
2022-10-08T06:01:48.783Z,58.30
2022-10-08T06:03:58.118Z,58.30
2022-10-08T06:06:05.874Z,58.30
2022-10-08T06:08:07.476Z,58.90
2022-10-08T06:10:09.293Z,58.00
2022-10-08T06:12:12.633Z,58.20
2022-10-08T06:14:17.063Z,58.60
2022-10-08T06:16:18.754Z,58.00
2022-10-08T06:18:20.339Z,58.00
2022-10-08T06:20:21.943Z,58.10
2022-10-08T06:22:23.584Z,58.00
2022-10-08T06:24:25.218Z,58.00
2022-10-08T06:26:39.390Z,57.80
2022-10-08T06:28:41.064Z,57.70
2022-10-08T06:30:43.597Z,57.70
2022-10-08T06:32:45.595Z,57.70
2022-10-08T06:34:47.400Z,57.60
2022-10-08T06:36:49.018Z,58.20
2022-10-08T06:38:56.727Z,58.30
2022-10-08T06:40:58.910Z,58.30
2022-10-08T06:43:06.191Z,58.30
2022-10-08T06:45:08.349Z,58.30
2022-10-08T06:47:10.027Z,58.30
2022-10-08T06:49:12.219Z,58.30
2022-10-08T06:51:16.587Z,58.20
2022-10-08T06:53:18.210Z,58.10
2022-10-08T06:55:19.870Z,58.10
2022-10-08T06:57:21.491Z,58.10
2022-10-08T06:59:23.091Z,58.00
2022-10-08T07:01:33.364Z,58.10
2022-10-08T07:03:38.025Z,57.90
2022-10-08T07:05:39.857Z,57.80
2022-10-08T07:07:41.464Z,57.70
2022-10-08T07:09:43.055Z,57.70
2022-10-08T07:11:44.707Z,57.60
2022-10-08T07:13:46.756Z,57.80
2022-10-08T07:15:48.380Z,57.70
2022-10-08T07:17:50.000Z,57.60
2022-10-08T07:19:52.232Z,57.60
2022-10-08T07:21:56.812Z,57.70
2022-10-08T07:24:02.164Z,57.80
2022-10-08T07:26:24.520Z,57.70
2022-10-08T07:28:28.630Z,57.50
2022-10-08T07:30:32.842Z,57.50
2022-10-08T07:32:34.592Z,57.50
2022-10-08T07:34:36.509Z,57.10
2022-10-08T07:36:39.545Z,57.40
2022-10-08T07:38:41.872Z,57.20
2022-10-08T07:40:43.463Z,57.40
2022-10-08T07:42:45.438Z,57.30
2022-10-08T07:44:47.291Z,57.30
2022-10-08T07:46:50.674Z,57.70
2022-10-08T07:48:54.794Z,57.60
2022-10-08T07:50:56.524Z,57.70
2022-10-08T07:52:58.114Z,57.20
2022-10-08T07:54:59.755Z,57.20
2022-10-08T07:57:02.239Z,57.20
2022-10-08T07:59:05.647Z,57.10
2022-10-08T08:01:10.310Z,56.90
2022-10-08T08:03:14.299Z,57.00
2022-10-08T08:05:15.992Z,56.50
2022-10-08T08:07:17.596Z,55.30
2022-10-08T08:09:19.319Z,55.20
2022-10-08T08:11:23.583Z,54.70
2022-10-08T08:13:25.891Z,55.20
2022-10-08T08:15:27.495Z,54.90
2022-10-08T08:17:29.096Z,56.00
2022-10-08T08:19:30.701Z,56.50
2022-10-08T08:21:35.024Z,56.70
2022-10-08T08:23:42.408Z,56.60
2022-10-08T08:25:44.912Z,56.70
2022-10-08T08:27:46.541Z,57.30
2022-10-08T08:29:48.132Z,56.50
2022-10-08T08:31:50.263Z,56.50
2022-10-08T08:33:55.520Z,56.40
2022-10-08T08:35:57.093Z,56.50
2022-10-08T08:37:58.707Z,56.60
2022-10-08T08:40:00.302Z,56.50
2022-10-08T08:42:31.515Z,56.50
2022-10-08T08:44:43.148Z,56.50
2022-10-08T08:46:56.549Z,56.50
2022-10-08T08:49:02.706Z,56.50
2022-10-08T08:51:04.461Z,56.60
2022-10-08T08:53:09.044Z,56.60
2022-10-08T08:55:17.042Z,56.60
2022-10-08T08:57:46.518Z,56.50
2022-10-08T08:59:53.319Z,56.40
2022-10-08T09:01:59.344Z,56.20
2022-10-08T09:04:13.023Z,56.10
2022-10-08T09:06:17.255Z,56.10
2022-10-08T09:08:20.965Z,56.10
2022-10-08T09:10:28.494Z,56.00
2022-10-08T09:12:43.776Z,56.00
2022-10-08T09:14:51.750Z,55.90
2022-10-08T09:16:55.792Z,55.30
2022-10-08T09:18:57.436Z,55.60
2022-10-08T09:20:59.069Z,55.60
2022-10-08T09:23:00.844Z,55.40
2022-10-08T09:25:16.417Z,55.40
2022-10-08T09:27:19.103Z,55.50
2022-10-08T09:29:33.532Z,55.30
2022-10-08T09:31:48.729Z,55.20
2022-10-08T09:34:15.861Z,55.30
2022-10-08T09:36:48.940Z,55.20
2022-10-08T09:38:58.607Z,55.20
2022-10-08T09:41:03.061Z,55.00
2022-10-08T09:43:17.352Z,54.70
2022-10-08T09:45:49.061Z,54.80
2022-10-08T09:48:12.563Z,54.90
2022-10-08T09:50:22.230Z,54.90
2022-10-08T09:52:26.987Z,54.90
2022-10-08T09:54:33.010Z,54.80
2022-10-08T09:56:35.346Z,54.80
2022-10-08T09:58:56.236Z,54.90
2022-10-08T10:01:04.459Z,54.90
2022-10-08T10:03:15.176Z,54.50
2022-10-08T10:05:24.291Z,54.70
2022-10-08T10:07:43.700Z,54.80
2022-10-08T10:09:54.107Z,54.60
2022-10-08T10:11:59.904Z,54.50
2022-10-08T10:14:09.173Z,53.90
2022-10-08T10:16:26.224Z,54.70
2022-10-08T10:18:34.996Z,54.40
2022-10-08T10:20:41.590Z,54.80
2022-10-08T10:23:06.390Z,53.90
2022-10-08T10:25:21.464Z,54.40
2022-10-08T10:27:23.032Z,54.10
2022-10-08T10:29:31.557Z,54.40
2022-10-08T10:31:45.433Z,54.60
2022-10-08T10:34:05.863Z,54.60
2022-10-08T10:36:16.407Z,54.50
2022-10-08T10:38:29.858Z,54.50
2022-10-08T10:41:11.977Z,54.20
2022-10-08T10:43:37.873Z,54.00
2022-10-08T10:45:41.932Z,54.40
2022-10-08T10:47:43.668Z,54.40
2022-10-08T10:49:45.405Z,54.70
2022-10-08T10:52:00.913Z,54.60
2022-10-08T10:54:17.396Z,54.70
2022-10-08T10:56:21.337Z,54.30
2022-10-08T10:58:40.660Z,54.10
2022-10-08T11:00:58.224Z,54.30
2022-10-08T11:03:28.037Z,54.40
2022-10-08T11:05:33.308Z,54.80
2022-10-08T11:08:14.259Z,54.30
2022-10-08T11:10:35.296Z,54.10
2022-10-08T11:12:45.176Z,54.30
2022-10-08T11:15:08.611Z,54.40
2022-10-08T11:17:39.775Z,54.10
2022-10-08T11:19:51.459Z,53.90
2022-10-08T11:22:02.187Z,53.80
2022-10-08T11:24:29.552Z,53.80
2022-10-08T11:26:34.016Z,53.80
2022-10-08T11:29:16.975Z,53.80
2022-10-08T11:31:24.420Z,53.90
2022-10-08T11:33:27.595Z,53.80
2022-10-08T11:35:43.764Z,53.80
2022-10-08T11:38:00.685Z,53.80
2022-10-08T11:40:34.660Z,53.80
2022-10-08T11:43:05.013Z,53.80
2022-10-08T11:45:31.107Z,53.90
2022-10-08T11:47:41.842Z,53.40
2022-10-08T11:49:52.036Z,52.80
2022-10-08T11:51:54.142Z,52.70
2022-10-08T11:54:45.044Z,52.60
2022-10-08T11:56:49.520Z,53.00
2022-10-08T11:58:57.424Z,53.10
2022-10-08T12:01:06.915Z,53.30
2022-10-08T12:03:40.131Z,53.40
2022-10-08T12:05:50.050Z,53.40
2022-10-08T12:07:57.068Z,53.50
2022-10-08T12:10:07.913Z,53.60
2022-10-08T12:12:13.632Z,53.60
2022-10-08T12:14:15.322Z,53.70
2022-10-08T12:16:16.975Z,53.80
2022-10-08T12:18:25.876Z,53.80
2022-10-08T12:20:30.756Z,53.90
2022-10-08T12:22:32.308Z,53.90
2022-10-08T12:24:37.051Z,53.80
2022-10-08T12:27:16.533Z,54.40
2022-10-08T12:29:48.192Z,53.70
2022-10-08T12:32:01.090Z,53.60
2022-10-08T12:34:16.963Z,53.60
2022-10-08T12:36:30.099Z,53.60
2022-10-08T12:38:57.936Z,53.60
2022-10-08T12:41:20.949Z,53.50
2022-10-08T12:43:49.837Z,53.50
2022-10-08T12:46:02.543Z,53.50
2022-10-08T12:48:19.634Z,53.40
2022-10-08T12:50:34.454Z,53.50
2022-10-08T12:52:36.635Z,53.50
2022-10-08T12:54:50.301Z,53.50
2022-10-08T12:56:52.764Z,53.40
2022-10-08T12:59:01.123Z,53.50
2022-10-08T13:01:05.361Z,53.40
2022-10-08T13:03:14.282Z,53.50
2022-10-08T13:05:29.070Z,53.50
2022-10-08T13:07:32.764Z,53.60
2022-10-08T13:09:35.913Z,53.60
2022-10-08T13:11:37.540Z,53.60
2022-10-08T13:13:39.110Z,53.50
2022-10-08T13:15:40.754Z,53.40
2022-10-08T13:17:42.384Z,53.40
2022-10-08T13:19:44.068Z,53.30
2022-10-08T13:22:00.336Z,53.40
2022-10-08T13:24:22.059Z,53.40
2022-10-08T13:26:43.642Z,53.30
2022-10-08T13:29:00.000Z,53.30
2022-10-08T13:31:20.642Z,53.40
2022-10-08T13:33:25.516Z,53.40
2022-10-08T13:35:27.148Z,53.40
2022-10-08T13:37:30.524Z,53.40
2022-10-08T13:39:36.591Z,53.40
2022-10-08T13:41:38.414Z,53.40
2022-10-08T13:43:40.071Z,53.50
2022-10-08T13:45:41.712Z,53.60
2022-10-08T13:47:43.388Z,53.50
2022-10-08T13:49:45.878Z,53.60
2022-10-08T13:51:48.879Z,53.60
2022-10-08T13:53:54.850Z,53.60
2022-10-08T13:55:58.480Z,53.70
2022-10-08T13:58:02.589Z,53.70
2022-10-08T14:00:05.243Z,53.70
2022-10-08T14:02:08.212Z,53.70
2022-10-08T14:04:09.920Z,53.70
2022-10-08T14:06:11.540Z,53.60
2022-10-08T14:08:24.593Z,53.80
2022-10-08T14:10:26.951Z,53.70
2022-10-08T14:12:32.541Z,53.70
2022-10-08T14:14:34.181Z,53.60
2022-10-08T14:16:35.845Z,53.70
2022-10-08T14:18:37.551Z,53.70
2022-10-08T14:20:39.369Z,53.70
2022-10-08T14:22:41.204Z,53.70
2022-10-08T14:24:42.837Z,53.60
2022-10-08T14:26:44.470Z,53.70
2022-10-08T14:28:46.166Z,53.60
2022-10-08T14:30:47.785Z,53.60
2022-10-08T14:32:49.412Z,53.60
2022-10-08T14:34:51.043Z,53.60
2022-10-08T14:36:56.170Z,53.60
2022-10-08T14:38:57.917Z,53.60
2022-10-08T14:41:00.479Z,53.60
2022-10-08T14:43:02.127Z,53.60
2022-10-08T14:45:04.094Z,53.60
2022-10-08T14:47:05.725Z,53.70
2022-10-08T14:49:07.303Z,53.70
2022-10-08T14:51:08.992Z,53.60
2022-10-08T14:53:10.664Z,53.70
2022-10-08T14:55:13.289Z,53.70
2022-10-08T14:57:14.927Z,53.70
2022-10-08T14:59:16.554Z,53.70
2022-10-08T15:01:18.163Z,53.70
2022-10-08T15:03:19.988Z,53.70
2022-10-08T15:05:21.739Z,53.70
2022-10-08T15:07:23.359Z,53.80
2022-10-08T15:09:25.043Z,53.70
2022-10-08T15:11:26.671Z,53.50
2022-10-08T15:13:28.982Z,52.90
2022-10-08T15:15:30.583Z,53.10
2022-10-08T15:17:32.237Z,53.80
2022-10-08T15:19:33.870Z,53.90
2022-10-08T15:21:36.149Z,53.70
2022-10-08T15:23:37.757Z,53.90
2022-10-08T15:25:40.381Z,53.60
2022-10-08T15:27:42.056Z,53.60
2022-10-08T15:29:43.776Z,53.50
2022-10-08T15:31:45.459Z,53.50
2022-10-08T15:33:49.166Z,53.30
2022-10-08T15:35:50.813Z,53.30
2022-10-08T15:37:52.447Z,53.50
2022-10-08T15:39:54.147Z,53.60
2022-10-08T15:41:55.978Z,53.70
2022-10-08T15:44:13.354Z,53.80
2022-10-08T15:46:17.074Z,53.90
2022-10-08T15:48:18.753Z,55.00
2022-10-08T15:50:20.405Z,53.80
2022-10-08T15:52:22.158Z,53.70
2022-10-08T15:54:23.990Z,54.10
2022-10-08T15:56:26.048Z,54.00
2022-10-08T15:58:49.992Z,53.80
2022-10-08T16:00:52.800Z,53.40
2022-10-08T16:02:55.483Z,55.10
2022-10-08T16:04:57.333Z,54.30
2022-10-08T16:06:59.324Z,54.20
2022-10-08T16:09:02.051Z,53.90
2022-10-08T16:11:13.749Z,54.10
2022-10-08T16:13:15.347Z,56.10
2022-10-08T16:15:16.999Z,55.70
2022-10-08T16:17:19.121Z,54.70
2022-10-08T16:19:23.820Z,55.70
2022-10-08T16:21:26.455Z,55.10
2022-10-08T16:23:28.761Z,57.80
2022-10-08T16:25:30.471Z,56.30
2022-10-08T16:27:32.057Z,55.40
2022-10-08T16:29:33.683Z,55.20
2022-10-08T16:31:37.562Z,54.70
2022-10-08T16:33:39.305Z,54.90
2022-10-08T16:35:40.889Z,54.70
2022-10-08T16:37:42.516Z,54.50
2022-10-08T16:39:44.244Z,54.40
2022-10-08T16:41:47.175Z,54.50
2022-10-08T16:43:50.475Z,54.60
2022-10-08T16:45:52.305Z,54.60
2022-10-08T16:47:54.392Z,54.70
2022-10-08T16:49:56.068Z,54.70
2022-10-08T16:52:05.494Z,54.80
2022-10-08T16:54:10.583Z,54.70
2022-10-08T16:56:12.203Z,54.90
2022-10-08T16:58:13.966Z,55.00
2022-10-08T17:00:15.711Z,55.10
2022-10-08T17:02:17.386Z,55.10
2022-10-08T17:04:20.899Z,55.20
2022-10-08T17:06:24.052Z,55.00
2022-10-08T17:08:25.680Z,55.00
2022-10-08T17:10:29.219Z,55.60
2022-10-08T17:12:30.799Z,56.00
2022-10-08T17:14:33.081Z,55.60
2022-10-08T17:16:35.797Z,56.00
2022-10-08T17:18:38.739Z,55.90
2022-10-08T17:20:41.229Z,55.90
2022-10-08T17:22:42.805Z,56.30
2022-10-08T17:24:44.409Z,56.30
2022-10-08T17:26:47.827Z,56.10
2022-10-08T17:28:51.534Z,56.20
2022-10-08T17:30:53.344Z,56.00
2022-10-08T17:32:54.951Z,56.20
2022-10-08T17:34:56.573Z,56.00
2022-10-08T17:36:58.189Z,56.10
2022-10-08T17:39:01.978Z,56.70
2022-10-08T17:41:39.734Z,55.60
2022-10-08T17:43:42.505Z,55.60
2022-10-08T17:45:44.225Z,56.00
2022-10-08T17:47:45.895Z,55.80
2022-10-08T17:49:47.557Z,55.60
2022-10-08T17:51:50.903Z,55.50
2022-10-08T17:53:56.490Z,55.50
2022-10-08T17:56:03.321Z,55.50
2022-10-08T17:58:04.896Z,55.50
2022-10-08T18:00:06.985Z,55.40
2022-10-08T18:02:08.846Z,55.80
2022-10-08T18:04:12.471Z,55.30
2022-10-08T18:06:14.425Z,55.60
2022-10-08T18:08:16.112Z,55.00
2022-10-08T18:10:18.174Z,55.10
2022-10-08T18:12:19.804Z,55.10
2022-10-08T18:14:22.272Z,55.20
2022-10-08T18:16:25.217Z,55.50
2022-10-08T18:18:26.848Z,55.20
2022-10-08T18:20:28.479Z,53.20
2022-10-08T18:22:30.105Z,53.40
2022-10-08T18:24:32.766Z,53.50
2022-10-08T18:26:36.778Z,54.20
2022-10-08T18:28:38.560Z,54.10
2022-10-08T18:30:40.258Z,54.00
2022-10-08T18:32:42.480Z,54.20
2022-10-08T18:34:44.180Z,54.30
2022-10-08T18:36:46.566Z,54.20
2022-10-08T18:38:53.263Z,54.00
2022-10-08T18:40:54.835Z,54.30
2022-10-08T18:42:56.684Z,54.00
2022-10-08T18:44:58.392Z,53.90
2022-10-08T18:47:04.568Z,54.00
2022-10-08T18:49:07.210Z,54.00
2022-10-08T18:51:11.408Z,53.40
2022-10-08T18:53:12.992Z,53.60
2022-10-08T18:55:14.686Z,53.80
2022-10-08T18:57:16.275Z,53.70
2022-10-08T18:59:17.896Z,54.00
2022-10-08T19:01:31.147Z,53.80
2022-10-08T19:03:32.957Z,54.20
2022-10-08T19:05:38.650Z,54.30
2022-10-08T19:07:40.236Z,54.40
2022-10-08T19:09:41.881Z,54.30
2022-10-08T19:11:49.438Z,54.40
2022-10-08T19:13:53.144Z,54.30
2022-10-08T19:15:54.764Z,54.30
2022-10-08T19:17:56.413Z,54.20
2022-10-08T19:19:58.027Z,54.20
2022-10-08T19:22:02.623Z,54.20
2022-10-08T19:24:05.907Z,54.20
2022-10-08T19:26:07.846Z,54.10
2022-10-08T19:28:09.555Z,54.10
2022-10-08T19:30:11.421Z,54.00
2022-10-08T19:32:13.054Z,54.00
2022-10-08T19:34:21.375Z,54.00
2022-10-08T19:36:24.658Z,54.00
2022-10-08T19:38:26.252Z,54.00
2022-10-08T19:40:27.866Z,53.90
2022-10-08T19:42:29.498Z,53.90
2022-10-08T19:44:31.116Z,53.90
2022-10-08T19:46:33.060Z,53.90
2022-10-08T19:48:34.791Z,53.90
2022-10-08T19:50:36.872Z,53.80
2022-10-08T19:52:38.495Z,53.80
2022-10-08T19:54:40.244Z,53.80
2022-10-08T19:56:42.284Z,53.80
2022-10-08T19:58:48.511Z,53.70
2022-10-08T20:01:01.383Z,53.70
2022-10-08T20:03:03.101Z,54.40
2022-10-08T20:05:05.124Z,53.60
2022-10-08T20:07:06.743Z,53.60
2022-10-08T20:09:11.771Z,53.60
2022-10-08T20:11:16.491Z,53.50
2022-10-08T20:13:18.139Z,53.50
2022-10-08T20:15:20.062Z,53.50
2022-10-08T20:17:21.891Z,53.40
2022-10-08T20:19:23.547Z,53.40
2022-10-08T20:21:26.541Z,53.50
2022-10-08T20:23:28.210Z,53.50
2022-10-08T20:25:29.948Z,53.40
2022-10-08T20:27:31.571Z,53.40
2022-10-08T20:29:33.888Z,53.40
2022-10-08T20:31:43.689Z,53.40
2022-10-08T20:33:46.727Z,53.40
2022-10-08T20:35:48.344Z,53.90
2022-10-08T20:37:49.941Z,53.30
2022-10-08T20:39:51.575Z,53.30
2022-10-08T20:41:53.660Z,53.30
2022-10-08T20:43:56.528Z,53.30
2022-10-08T20:46:02.464Z,53.30
2022-10-08T20:48:04.196Z,53.20
2022-10-08T20:50:06.393Z,53.30
2022-10-08T20:52:08.002Z,53.30
2022-10-08T20:54:12.569Z,53.20
2022-10-08T20:56:14.400Z,53.20
2022-10-08T20:58:16.353Z,53.30
2022-10-08T21:00:18.065Z,53.30
2022-10-08T21:02:20.068Z,53.30
2022-10-08T21:04:21.784Z,53.30
2022-10-08T21:06:26.265Z,53.40
2022-10-08T21:08:27.988Z,53.40
2022-10-08T21:10:29.598Z,53.40
2022-10-08T21:12:32.215Z,53.40
2022-10-08T21:14:33.866Z,54.20
2022-10-08T21:16:39.955Z,53.60
2022-10-08T21:18:42.185Z,53.60
2022-10-08T21:20:44.740Z,53.60
2022-10-08T21:22:46.629Z,53.60
2022-10-08T21:24:48.394Z,53.70
2022-10-08T21:26:50.070Z,53.70
2022-10-08T21:28:56.216Z,53.60
2022-10-08T21:31:01.821Z,53.70
2022-10-08T21:33:05.695Z,53.70
2022-10-08T21:35:07.715Z,53.80
2022-10-08T21:37:13.579Z,53.80
2022-10-08T21:39:17.121Z,54.00
2022-10-08T21:41:20.894Z,53.90
2022-10-08T21:43:22.715Z,53.90
2022-10-08T21:45:24.399Z,54.00
2022-10-08T21:47:26.560Z,54.00
2022-10-08T21:49:28.272Z,54.10
2022-10-08T21:51:31.570Z,54.10
2022-10-08T21:53:34.793Z,54.20
2022-10-08T21:55:36.399Z,54.30
2022-10-08T21:57:38.091Z,54.30
2022-10-08T21:59:39.728Z,54.50
2022-10-08T22:01:46.744Z,54.50
2022-10-08T22:03:48.947Z,54.50
2022-10-08T22:05:59.234Z,54.60
2022-10-08T22:08:00.933Z,54.60
2022-10-08T22:10:02.552Z,54.70
2022-10-08T22:12:04.352Z,54.60
2022-10-08T22:14:06.091Z,55.50
2022-10-08T22:16:08.645Z,54.70
2022-10-08T22:18:10.260Z,54.90
2022-10-08T22:20:11.893Z,54.90
2022-10-08T22:22:13.478Z,54.80
2022-10-08T22:24:15.251Z,54.80
2022-10-08T22:26:26.113Z,54.90
2022-10-08T22:28:29.801Z,54.80
2022-10-08T22:30:35.361Z,54.80
2022-10-08T22:32:36.994Z,54.90
2022-10-08T22:34:38.582Z,54.80
2022-10-08T22:36:42.991Z,54.80
2022-10-08T22:38:45.864Z,54.90
2022-10-08T22:40:47.437Z,54.90
2022-10-08T22:42:49.309Z,54.90
2022-10-08T22:44:51.071Z,54.80
2022-10-08T22:46:52.653Z,54.90
2022-10-08T22:49:02.884Z,54.90
2022-10-08T22:51:12.872Z,54.80
2022-10-08T22:53:14.517Z,54.90
2022-10-08T22:55:17.284Z,54.90
2022-10-08T22:57:18.907Z,54.90
2022-10-08T22:59:20.532Z,54.90
2022-10-08T23:01:24.133Z,54.90
2022-10-08T23:03:25.895Z,54.90
2022-10-08T23:05:27.511Z,54.90
2022-10-08T23:07:29.159Z,54.90
2022-10-08T23:09:30.854Z,54.70
2022-10-08T23:11:33.096Z,54.90
2022-10-08T23:13:34.863Z,54.70
2022-10-08T23:15:36.461Z,54.80
2022-10-08T23:17:38.117Z,54.80
2022-10-08T23:19:39.759Z,54.80
2022-10-08T23:21:44.261Z,54.80
2022-10-08T23:23:47.499Z,54.90
2022-10-08T23:25:57.648Z,54.80
2022-10-08T23:27:59.254Z,54.80
2022-10-08T23:30:01.681Z,54.80
2022-10-08T23:32:03.508Z,54.90
2022-10-08T23:34:07.179Z,54.90
2022-10-08T23:36:10.659Z,54.90
2022-10-08T23:38:12.250Z,54.90
2022-10-08T23:40:14.052Z,54.90
2022-10-08T23:42:15.712Z,54.90
2022-10-08T23:44:17.283Z,54.90
2022-10-08T23:46:22.164Z,54.90
2022-10-08T23:48:23.918Z,55.00
2022-10-08T23:50:25.547Z,55.00
2022-10-08T23:52:27.141Z,54.90
2022-10-08T23:54:28.735Z,54.90
2022-10-08T23:56:31.065Z,54.90
2022-10-08T23:58:33.292Z,54.90
